Terminal Aerodrome Forecast
Issued by NWS

Home | Current Version | Previous Version | Text Only | Print | Product List | Glossary On
Versions: 1 2 3 4 5 6 7 8 9 10 11 12 13 14
146
FTUS46 KSTO 021127
TAFRDD
TAF
KRDD 021127Z 0212/0312 VRB04KT P6SM FEW250
     FM022100 18010KT P6SM SCT250
     FM030400 VRB04KT P6SM BKN250=

USA.gov is the U.S. government's official web portal to all federal, state and local government web resources and services.